Time,TemperatureF,DewpointF,PressureIn,WindDirection,WindDirectionDegrees,WindSpeedMPH,WindSpeedGustMPH,Humidity,HourlyPrecipIn,Conditions,Clouds,dailyrainin,SoftwareType,DateUTC
2013-03-07 00:10:00,35.5,28.0,30.26,NNE,33,2.0,12.0,74,0.00,OVC,,0.00,WeatherDisplay:10.37,2013-03-07 05:10:00,
2013-03-07 00:20:00,35.5,28.0,30.25,NE,38,3.0,10.0,74,0.00,OVC,,0.00,WeatherDisplay:10.37,2013-03-07 05:20:00,
2013-03-07 00:31:00,35.4,28.3,30.26,NNE,25,3.0,10.0,75,0.00,OVC,,0.00,WeatherDisplay:10.37,2013-03-07 05:31:00,
2013-03-07 00:40:00,35.4,28.3,30.26,NNE,13,3.0,7.0,75,0.00,OVC,,0.00,WeatherDisplay:10.37,2013-03-07 05:40:00,
2013-03-07 00:50:00,35.4,28.3,30.26,NNE,25,5.0,10.0,75,0.00,OVC,,0.00,WeatherDisplay:10.37,2013-03-07 05:50:00,
2013-03-07 01:01:00,35.3,28.5,30.26,NNE,29,2.0,8.0,76,0.00,OVC,,0.00,WeatherDisplay:10.37,2013-03-07 06:01:00,
2013-03-07 01:10:00,35.3,28.5,30.26,NNE,16,3.0,10.0,76,0.00,OVC,,0.00,WeatherDisplay:10.37,2013-03-07 06:10:00,
2013-03-07 01:20:00,35.3,28.2,30.27,NE,34,3.0,12.0,75,0.00,OVC,,0.00,WeatherDisplay:10.37,2013-03-07 06:20:00,
2013-03-07 01:31:00,35.3,28.2,30.27,North,1,5.0,10.0,75,0.00,OVC,,0.00,WeatherDisplay:10.37,2013-03-07 06:31:00,
2013-03-07 01:40:00,35.2,28.4,30.27,NNE,27,3.0,8.0,76,0.00,OVC,,0.00,WeatherDisplay:10.37,2013-03-07 06:40:00,
2013-03-07 01:50:00,35.1,28.3,30.26,NNE,22,5.0,8.0,76,0.00,OVC,,0.00,WeatherDisplay:10.37,2013-03-07 06:50:00,
2013-03-07 02:00:00,35.1,28.0,30.26,NNE,30,3.0,10.0,75,0.00,OVC,,0.00,WeatherDisplay:10.37,2013-03-07 07:00:00,
2013-03-07 02:10:00,35.0,27.9,30.26,NE,36,2.0,8.0,75,0.00,OVC,,0.00,WeatherDisplay:10.37,2013-03-07 07:10:00,
2013-03-07 02:20:00,35.0,27.5,30.26,NNE,15,2.0,9.0,74,0.00,OVC,,0.00,WeatherDisplay:10.37,2013-03-07 07:20:00,
2013-03-07 02:31:00,35.1,27.6,30.27,NNE,27,3.0,10.0,74,0.00,OVC,,0.00,WeatherDisplay:10.37,2013-03-07 07:31:00,
2013-03-07 02:40:00,35.1,28.0,30.27,NNE,25,2.0,8.0,75,0.00,OVC,,0.00,WeatherDisplay:10.37,2013-03-07 07:40:00,
2013-03-07 02:50:00,35.1,27.6,30.27,NNE,28,2.0,14.0,74,0.00,OVC,,0.00,WeatherDisplay:10.37,2013-03-07 07:50:00,
2013-03-07 03:00:00,35.1,28.0,30.27,NE,34,5.0,12.0,75,0.00,OVC,,0.00,WeatherDisplay:10.37,2013-03-07 08:00:00,
2013-03-07 03:10:00,35.1,28.0,30.27,NNE,21,6.0,10.0,75,0.00,OVC,,0.00,WeatherDisplay:10.37,2013-03-07 08:10:00,
2013-03-07 03:20:00,35.1,27.9,30.28,North,352,2.0,8.0,75,0.00,OVC,,0.00,WeatherDisplay:10.37,2013-03-07 08:20:00,
2013-03-07 03:31:00,35.0,27.9,30.28,NNE,30,3.0,12.0,75,0.00,OVC,,0.00,WeatherDisplay:10.37,2013-03-07 08:31:00,
2013-03-07 03:40:00,34.9,27.8,30.28,NNE,32,2.0,9.0,75,0.00,OVC,,0.00,WeatherDisplay:10.37,2013-03-07 08:40:00,
2013-03-07 03:50:00,34.8,27.7,30.28,NE,36,5.0,8.0,75,0.00,OVC,,0.00,WeatherDisplay:10.37,2013-03-07 08:50:00,
2013-03-07 04:01:00,34.8,27.7,30.27,NE,35,6.0,8.0,75,0.00,OVC,,0.00,WeatherDisplay:10.37,2013-03-07 09:01:00,
2013-03-07 04:10:00,34.7,27.6,30.27,NE,40,2.0,8.0,75,0.00,OVC,,0.00,WeatherDisplay:10.37,2013-03-07 09:10:00,
2013-03-07 04:20:00,34.6,27.5,30.27,NNE,21,2.0,10.0,75,0.00,OVC,,0.00,WeatherDisplay:10.37,2013-03-07 09:20:00,
2013-03-07 04:31:00,34.6,27.8,30.27,NNE,18,1.0,8.0,76,0.00,OVC,,0.00,WeatherDisplay:10.37,2013-03-07 09:31:00,
2013-03-07 04:40:00,34.6,27.8,30.28,NNE,23,5.0,13.0,76,0.00,OVC,,0.00,WeatherDisplay:10.37,2013-03-07 09:40:00,
2013-03-07 04:50:00,34.6,27.8,30.28,NE,36,6.0,9.0,76,0.00,OVC,,0.00,WeatherDisplay:10.37,2013-03-07 09:50:00,
2013-03-07 05:00:00,34.6,27.8,30.29,NNE,30,2.0,9.0,76,0.00,OVC,,0.00,WeatherDisplay:10.37,2013-03-07 10:00:00,
2013-03-07 05:10:00,34.5,27.7,30.29,NNE,30,5.0,10.0,76,0.00,OVC,,0.00,WeatherDisplay:10.37,2013-03-07 10:10:00,
2013-03-07 05:20:00,34.5,28.0,30.30,NNE,29,2.0,10.0,77,0.00,OVC,,0.00,WeatherDisplay:10.37,2013-03-07 10:20:00,
2013-03-07 05:30:00,34.5,28.0,30.30,NE,35,3.0,8.0,77,0.00,OVC,,0.00,WeatherDisplay:10.37,2013-03-07 10:30:00,
2013-03-07 05:40:00,34.6,27.8,30.30,NNE,27,6.0,8.0,76,0.00,OVC,,0.00,WeatherDisplay:10.37,2013-03-07 10:40:00,
2013-03-07 05:50:00,34.4,27.6,30.30,NNE,28,3.0,10.0,76,0.00,OVC,,0.00,WeatherDisplay:10.37,2013-03-07 10:50:00,
2013-03-07 06:00:00,34.2,27.8,30.30,NE,41,2.0,12.0,77,0.00,OVC,,0.00,WeatherDisplay:10.37,2013-03-07 11:00:00,
2013-03-07 06:10:00,34.1,28.0,30.30,NE,41,3.0,7.0,78,0.00,OVC,,0.00,WeatherDisplay:10.37,2013-03-07 11:10:00,
2013-03-07 06:20:00,34.1,27.9,30.30,NE,41,3.0,8.0,78,0.00,OVC,,0.00,WeatherDisplay:10.37,2013-03-07 11:20:00,
2013-03-07 06:30:00,33.9,28.1,30.30,NNE,33,5.0,10.0,79,0.00,OVC,,0.00,WeatherDisplay:10.37,2013-03-07 11:30:00,
2013-03-07 06:40:00,34.0,27.8,30.30,NNE,28,3.0,10.0,78,0.00,OVC,,0.00,WeatherDisplay:10.37,2013-03-07 11:40:00,
2013-03-07 06:50:00,34.1,28.0,30.31,NE,41,5.0,12.0,78,0.00,OVC,,0.00,WeatherDisplay:10.37,2013-03-07 11:50:00,
2013-03-07 07:01:00,34.1,27.9,30.31,NE,49,1.0,8.0,78,0.00,OVC,,0.00,WeatherDisplay:10.37,2013-03-07 12:01:00,
2013-03-07 07:10:00,34.0,28.2,30.30,NE,37,6.0,8.0,79,0.00,OVC,,0.00,WeatherDisplay:10.37,2013-03-07 12:10:00,
2013-03-07 07:20:00,33.9,28.1,30.30,NE,42,5.0,10.0,79,0.00,OVC,,0.00,WeatherDisplay:10.37,2013-03-07 12:20:00,
2013-03-07 07:31:00,33.9,28.1,30.31,NNE,28,3.0,7.0,79,0.00,OVC,,0.00,WeatherDisplay:10.37,2013-03-07 12:31:00,
2013-03-07 07:40:00,34.0,28.2,30.32,NNE,28,5.0,10.0,79,0.00,OVC,,0.00,WeatherDisplay:10.37,2013-03-07 12:40:00,
2013-03-07 07:50:00,34.1,28.3,30.32,NE,43,5.0,12.0,79,0.00,OVC,,0.00,WeatherDisplay:10.37,2013-03-07 12:50:00,
2013-03-07 08:01:00,34.1,28.0,30.33,NNE,13,3.0,8.0,78,0.00,OVC,,0.00,WeatherDisplay:10.37,2013-03-07 13:01:00,
2013-03-07 08:20:00,34.3,28.5,30.33,NE,39,5.0,9.0,79,0.00,OVC,,0.00,WeatherDisplay:10.37,2013-03-07 13:20:00,
2013-03-07 08:31:00,34.6,28.7,30.33,NE,41,2.0,8.0,79,0.00,OVC,,0.00,WeatherDisplay:10.37,2013-03-07 13:31:00,
2013-03-07 08:40:00,35.0,28.8,30.33,NNE,22,3.0,9.0,78,0.00,OVC,,0.00,WeatherDisplay:10.37,2013-03-07 13:40:00,
2013-03-07 08:50:00,35.2,28.7,30.34,NE,44,3.0,13.0,77,0.00,BKN,,0.00,WeatherDisplay:10.37,2013-03-07 13:50:00,
2013-03-07 09:01:00,35.3,28.8,30.34,NNE,24,5.0,13.0,77,0.00,BKN,,0.00,WeatherDisplay:10.37,2013-03-07 14:01:00,
2013-03-07 09:10:00,35.5,28.7,30.35,NNE,14,5.0,10.0,76,0.00,SCT,,0.00,WeatherDisplay:10.37,2013-03-07 14:10:00,
2013-03-07 09:20:00,36.1,28.9,30.35,NNE,15,3.0,14.0,75,0.00,SCT,,0.00,WeatherDisplay:10.37,2013-03-07 14:20:00,
2013-03-07 09:31:00,36.5,29.0,30.35,NE,40,7.0,13.0,74,0.00,SCT,,0.00,WeatherDisplay:10.37,2013-03-07 14:31:00,
2013-03-07 09:40:00,36.2,28.7,30.35,NE,39,8.0,16.0,74,0.00,BKN,,0.00,WeatherDisplay:10.37,2013-03-07 14:40:00,
2013-03-07 09:50:00,36.6,29.7,30.35,NE,45,6.0,12.0,76,0.00,BKN,,0.00,WeatherDisplay:10.37,2013-03-07 14:50:00,
2013-03-07 10:01:00,36.8,29.6,30.35,NE,44,7.0,14.0,75,0.00,BKN,,0.00,WeatherDisplay:10.37,2013-03-07 15:01:00,
2013-03-07 10:10:00,38.0,30.1,30.35,NNE,27,6.0,16.0,73,0.00,BKN,,0.00,WeatherDisplay:10.37,2013-03-07 15:10:00,
2013-03-07 10:20:00,36.9,29.1,30.35,NE,36,6.0,18.0,73,0.00,BKN,,0.00,WeatherDisplay:10.37,2013-03-07 15:20:00,
2013-03-07 10:31:00,37.5,30.0,30.34,NE,54,7.0,16.0,74,0.00,BKN,,0.00,WeatherDisplay:10.37,2013-03-07 15:31:00,
2013-03-07 10:40:00,38.3,30.1,30.33,NE,48,7.0,14.0,72,0.00,SCT,,0.00,WeatherDisplay:10.37,2013-03-07 15:40:00,
2013-03-07 10:50:00,37.9,29.7,30.33,NE,45,7.0,13.0,72,0.00,CLR,,0.00,WeatherDisplay:10.37,2013-03-07 15:50:00,
2013-03-07 11:01:00,38.6,30.3,30.34,NE,39,6.0,12.0,72,0.00,CLR,,0.00,WeatherDisplay:10.37,2013-03-07 16:01:00,
2013-03-07 11:10:00,39.5,30.5,30.33,NE,36,6.0,15.0,70,0.00,CLR,,0.00,WeatherDisplay:10.37,2013-03-07 16:10:00,
2013-03-07 11:20:00,39.6,30.3,30.33,NNE,31,5.0,16.0,69,0.00,CLR,,0.00,WeatherDisplay:10.37,2013-03-07 16:20:00,
2013-03-07 11:31:00,40.0,30.6,30.33,NE,40,5.0,15.0,69,0.00,CLR,,0.00,WeatherDisplay:10.37,2013-03-07 16:31:00,
2013-03-07 11:40:00,40.5,31.5,30.32,NE,46,6.0,14.0,70,0.00,CLR,,0.00,WeatherDisplay:10.37,2013-03-07 16:40:00,
2013-03-07 11:50:00,41.0,30.8,30.33,NNE,29,6.0,14.0,67,0.00,CLR,,0.00,WeatherDisplay:10.37,2013-03-07 16:50:00,
2013-03-07 12:01:00,41.3,31.2,30.33,NE,55,6.0,13.0,67,0.00,CLR,,0.00,WeatherDisplay:10.37,2013-03-07 17:01:00,
2013-03-07 12:10:00,41.1,30.6,30.33,NE,47,8.0,12.0,66,0.00,CLR,,0.00,WeatherDisplay:10.37,2013-03-07 17:10:00,
2013-03-07 12:20:00,41.5,31.4,30.33,NE,45,3.0,15.0,67,0.00,CLR,,0.00,WeatherDisplay:10.37,2013-03-07 17:20:00,
2013-03-07 12:31:00,41.6,31.0,30.33,NE,47,3.0,13.0,66,0.00,CLR,,0.00,WeatherDisplay:10.37,2013-03-07 17:31:00,
2013-03-07 12:40:00,42.2,30.9,30.33,NE,44,5.0,12.0,64,0.00,CLR,,0.00,WeatherDisplay:10.37,2013-03-07 17:40:00,
2013-03-07 12:50:00,42.8,31.1,30.32,NNE,27,9.0,15.0,63,0.00,CLR,,0.00,WeatherDisplay:10.37,2013-03-07 17:50:00,
2013-03-07 13:01:00,43.2,30.6,30.32,NNE,27,7.0,14.0,61,0.00,CLR,,0.00,WeatherDisplay:10.37,2013-03-07 18:01:00,
2013-03-07 13:10:00,43.3,31.9,30.32,NE,36,6.0,14.0,64,0.00,CLR,,0.00,WeatherDisplay:10.37,2013-03-07 18:10:00,
2013-03-07 13:20:00,43.7,32.0,30.31,NE,52,6.0,12.0,63,0.00,CLR,,0.00,WeatherDisplay:10.37,2013-03-07 18:20:00,
2013-03-07 13:31:00,44.1,32.3,30.30,NE,49,7.0,13.0,63,0.00,CLR,,0.00,WeatherDisplay:10.37,2013-03-07 18:31:00,
2013-03-07 13:40:00,44.3,31.3,30.30,NE,50,5.0,16.0,60,0.00,CLR,,0.00,WeatherDisplay:10.37,2013-03-07 18:40:00,
2013-03-07 13:50:00,44.5,31.5,30.30,NE,41,6.0,15.0,60,0.00,CLR,,0.00,WeatherDisplay:10.37,2013-03-07 18:50:00,
2013-03-07 14:01:00,45.2,31.7,30.29,NE,39,10.0,16.0,59,0.00,CLR,,0.00,WeatherDisplay:10.37,2013-03-07 19:01:00,
2013-03-07 14:10:00,45.5,33.6,30.29,NE,35,5.0,12.0,63,0.00,CLR,,0.00,WeatherDisplay:10.37,2013-03-07 19:10:00,
2013-03-07 14:20:00,46.0,32.0,30.29,NE,37,5.0,12.0,58,0.00,CLR,,0.00,WeatherDisplay:10.37,2013-03-07 19:20:00,
2013-03-07 14:31:00,46.1,32.6,30.28,NE,39,5.0,14.0,59,0.00,CLR,,0.00,WeatherDisplay:10.37,2013-03-07 19:31:00,
2013-03-07 14:40:00,46.7,32.7,30.28,NNE,28,6.0,10.0,58,0.00,CLR,,0.00,WeatherDisplay:10.37,2013-03-07 19:40:00,
2013-03-07 14:50:00,46.7,32.3,30.28,NE,51,6.0,12.0,57,0.00,CLR,,0.00,WeatherDisplay:10.37,2013-03-07 19:50:00,
2013-03-07 15:01:00,47.2,32.7,30.28,NNE,33,5.0,12.0,57,0.00,CLR,,0.00,WeatherDisplay:10.37,2013-03-07 20:01:00,
2013-03-07 15:10:00,47.5,33.4,30.28,NE,53,6.0,10.0,58,0.00,CLR,,0.00,WeatherDisplay:10.37,2013-03-07 20:10:00,
2013-03-07 15:20:00,47.1,33.1,30.28,NNE,31,6.0,14.0,58,0.00,CLR,,0.00,WeatherDisplay:10.37,2013-03-07 20:20:00,
2013-03-07 15:31:00,46.8,31.9,30.27,NNE,33,9.0,16.0,56,0.00,CLR,,0.00,WeatherDisplay:10.37,2013-03-07 20:31:00,
2013-03-07 15:40:00,47.6,32.7,30.27,NE,41,5.0,10.0,56,0.00,CLR,,0.00,WeatherDisplay:10.37,2013-03-07 20:40:00,
2013-03-07 15:50:00,47.5,32.2,30.27,NE,46,7.0,15.0,55,0.00,CLR,,0.00,WeatherDisplay:10.37,2013-03-07 20:50:00,
2013-03-07 16:01:00,47.6,33.1,30.28,NE,44,5.0,12.0,57,0.00,CLR,,0.00,WeatherDisplay:10.37,2013-03-07 21:01:00,
2013-03-07 16:10:00,47.5,32.6,30.27,NE,39,3.0,10.0,56,0.00,CLR,,0.00,WeatherDisplay:10.37,2013-03-07 21:10:00,
2013-03-07 16:20:00,47.7,33.2,30.27,NNE,33,7.0,13.0,57,0.00,CLR,,0.00,WeatherDisplay:10.37,2013-03-07 21:20:00,
2013-03-07 16:31:00,47.6,32.2,30.28,NE,36,7.0,20.0,55,0.00,CLR,,0.00,WeatherDisplay:10.37,2013-03-07 21:31:00,
2013-03-07 16:40:00,47.4,32.5,30.28,NE,41,7.0,12.0,56,0.00,CLR,,0.00,WeatherDisplay:10.37,2013-03-07 21:40:00,
2013-03-07 16:50:00,47.4,32.4,30.29,NE,42,2.0,12.0,56,0.00,CLR,,0.00,WeatherDisplay:10.37,2013-03-07 21:50:00,
2013-03-07 17:01:00,47.0,31.7,30.29,NE,46,6.0,14.0,55,0.00,CLR,,0.00,WeatherDisplay:10.37,2013-03-07 22:01:00,
2013-03-07 17:10:00,47.0,32.1,30.29,NE,36,2.0,12.0,56,0.00,CLR,,0.00,WeatherDisplay:10.37,2013-03-07 22:10:00,
2013-03-07 17:20:00,46.9,32.1,30.28,NE,42,5.0,12.0,56,0.00,CLR,,0.00,WeatherDisplay:10.37,2013-03-07 22:20:00,
2013-03-07 17:31:00,46.8,32.4,30.29,NE,34,1.0,8.0,57,0.00,CLR,,0.00,WeatherDisplay:10.37,2013-03-07 22:31:00,
2013-03-07 17:40:00,46.7,32.7,30.28,NNE,31,2.0,6.0,58,0.00,CLR,,0.00,WeatherDisplay:10.37,2013-03-07 22:40:00,
2013-03-07 17:50:00,45.9,32.3,30.29,NE,41,5.0,12.0,59,0.00,CLR,,0.00,WeatherDisplay:10.37,2013-03-07 22:50:00,
2013-03-07 18:01:00,45.1,32.5,30.29,NE,42,3.0,12.0,61,0.00,CLR,,0.00,WeatherDisplay:10.37,2013-03-07 23:01:00,
2013-03-07 18:10:00,44.7,31.7,30.29,NE,40,2.0,7.0,60,0.00,CLR,,0.00,WeatherDisplay:10.37,2013-03-07 23:10:00,
2013-03-07 18:20:00,44.4,32.2,30.29,NE,39,3.0,7.0,62,0.00,CLR,,0.00,WeatherDisplay:10.37,2013-03-07 23:20:00,
2013-03-07 18:31:00,43.9,31.3,30.30,NE,35,7.0,10.0,61,0.00,CLR,,0.00,WeatherDisplay:10.37,2013-03-07 23:31:00,
2013-03-07 18:40:00,43.6,31.4,30.30,NE,41,6.0,12.0,62,0.00,CLR,,0.00,WeatherDisplay:10.37,2013-03-07 23:40:00,
2013-03-07 18:50:00,43.2,31.8,30.30,NE,43,1.0,9.0,64,0.00,CLR,,0.00,WeatherDisplay:10.37,2013-03-07 23:50:00,
2013-03-07 19:01:00,42.7,31.7,30.31,NE,34,0.0,7.0,65,0.00,CLR,,0.00,WeatherDisplay:10.37,2013-03-08 00:01:00,
2013-03-07 19:10:00,42.2,31.6,30.31,NE,37,3.0,5.0,66,0.00,CLR,,0.00,WeatherDisplay:10.37,2013-03-08 00:10:00,
2013-03-07 19:20:00,41.8,31.3,30.31,NE,44,0.0,4.0,66,0.00,CLR,,0.00,WeatherDisplay:10.37,2013-03-08 00:20:00,
2013-03-07 19:31:00,41.4,31.3,30.31,NE,41,5.0,8.0,67,0.00,CLR,,0.00,WeatherDisplay:10.37,2013-03-08 00:31:00,
2013-03-07 19:40:00,41.1,31.3,30.32,NE,42,5.0,10.0,68,0.00,CLR,,0.00,WeatherDisplay:10.37,2013-03-08 00:40:00,
2013-03-07 19:50:00,40.6,31.2,30.32,NE,43,5.0,8.0,69,0.00,CLR,,0.00,WeatherDisplay:10.37,2013-03-08 00:50:00,
2013-03-07 20:01:00,40.1,31.5,30.32,NE,42,3.0,7.0,71,0.00,CLR,,0.00,WeatherDisplay:10.37,2013-03-08 01:01:00,
2013-03-07 20:10:00,39.6,31.0,30.32,NE,42,3.0,9.0,71,0.00,CLR,,0.00,WeatherDisplay:10.37,2013-03-08 01:10:00,
2013-03-07 20:20:00,39.2,30.6,30.33,NE,43,5.0,10.0,71,0.00,CLR,,0.00,WeatherDisplay:10.37,2013-03-08 01:20:00,
2013-03-07 20:31:00,38.8,30.5,30.33,NE,41,2.0,10.0,72,0.00,CLR,,0.00,WeatherDisplay:10.37,2013-03-08 01:31:00,
2013-03-07 20:40:00,38.4,30.2,30.33,NE,40,6.0,12.0,72,0.00,CLR,,0.00,WeatherDisplay:10.37,2013-03-08 01:40:00,
2013-03-07 20:50:00,38.1,29.9,30.33,NE,39,6.0,12.0,72,0.00,CLR,,0.00,WeatherDisplay:10.37,2013-03-08 01:50:00,
2013-03-07 21:01:00,37.8,29.6,30.33,NE,38,5.0,12.0,72,0.00,CLR,,0.00,WeatherDisplay:10.37,2013-03-08 02:01:00,
2013-03-07 21:10:00,37.5,29.6,30.33,NE,40,5.0,10.0,73,0.00,CLR,,0.00,WeatherDisplay:10.37,2013-03-08 02:10:00,
2013-03-07 21:20:00,37.2,29.3,30.33,NE,38,5.0,12.0,73,0.00,CLR,,0.00,WeatherDisplay:10.37,2013-03-08 02:20:00,
2013-03-07 21:31:00,36.9,29.4,30.33,NE,42,7.0,12.0,74,0.00,CLR,,0.00,WeatherDisplay:10.37,2013-03-08 02:31:00,
2013-03-07 21:40:00,36.7,29.2,30.33,NE,35,5.0,12.0,74,0.00,CLR,,0.00,WeatherDisplay:10.37,2013-03-08 02:40:00,
2013-03-07 21:50:00,36.4,28.9,30.33,NE,43,6.0,12.0,74,0.00,CLR,,0.00,WeatherDisplay:10.37,2013-03-08 02:50:00,
2013-03-07 22:01:00,36.2,29.0,30.33,NE,44,3.0,9.0,75,0.00,CLR,,0.00,WeatherDisplay:10.37,2013-03-08 03:01:00,
2013-03-07 22:10:00,36.0,28.8,30.33,NE,40,5.0,8.0,75,0.00,CLR,,0.00,WeatherDisplay:10.37,2013-03-08 03:10:00,
2013-03-07 22:20:00,35.7,28.9,30.33,NE,42,3.0,10.0,76,0.00,CLR,,0.00,WeatherDisplay:10.37,2013-03-08 03:20:00,
2013-03-07 22:31:00,35.6,28.7,30.33,NE,39,5.0,10.0,76,0.00,CLR,,0.00,WeatherDisplay:10.37,2013-03-08 03:31:00,
2013-03-07 22:40:00,35.4,28.6,30.33,NE,41,6.0,12.0,76,0.00,SCT,,0.00,WeatherDisplay:10.37,2013-03-08 03:40:00,
2013-03-07 22:50:00,35.3,28.8,30.33,NE,40,5.0,12.0,77,0.00,SCT,,0.00,WeatherDisplay:10.37,2013-03-08 03:50:00,
2013-03-07 23:01:00,35.1,28.6,30.33,NE,44,7.0,12.0,77,0.00,SCT,,0.00,WeatherDisplay:10.37,2013-03-08 04:01:00,
2013-03-07 23:10:00,35.0,28.2,30.32,NE,45,6.0,14.0,76,0.00,CLR,,0.00,WeatherDisplay:10.37,2013-03-08 04:10:00,
2013-03-07 23:20:00,34.9,28.4,30.32,NE,46,7.0,14.0,77,0.00,CLR,,0.00,WeatherDisplay:10.37,2013-03-08 04:20:00,
2013-03-07 23:31:00,34.8,28.3,30.32,NE,43,5.0,12.0,77,0.00,CLR,,0.00,WeatherDisplay:10.37,2013-03-08 04:31:00,
2013-03-07 23:40:00,34.5,28.3,30.32,NE,42,5.0,12.0,78,0.00,CLR,,0.00,WeatherDisplay:10.37,2013-03-08 04:40:00,
2013-03-07 23:50:00,34.4,27.9,30.32,NE,42,6.0,16.0,77,0.00,CLR,,0.00,WeatherDisplay:10.37,2013-03-08 04:50:00,